sensor_id;sensor_type;location;lat;lon;timestamp;temperature;humidity
32612;DHT22;19030;49.478;8.986;2022-07-29T00:01:59;19.10;71.40
32612;DHT22;19030;49.478;8.986;2022-07-29T00:03:59;19.10;71.80
32612;DHT22;19030;49.478;8.986;2022-07-29T00:06:00;19.10;72.00
32612;DHT22;19030;49.478;8.986;2022-07-29T00:08:00;19.00;72.30
32612;DHT22;19030;49.478;8.986;2022-07-29T00:10:01;19.00;72.60
32612;DHT22;19030;49.478;8.986;2022-07-29T00:12:02;19.00;72.50
32612;DHT22;19030;49.478;8.986;2022-07-29T00:14:03;19.00;72.40
32612;DHT22;19030;49.478;8.986;2022-07-29T00:16:04;18.90;72.00
32612;DHT22;19030;49.478;8.986;2022-07-29T00:18:04;19.00;72.40
32612;DHT22;19030;49.478;8.986;2022-07-29T00:20:05;18.90;72.80
32612;DHT22;19030;49.478;8.986;2022-07-29T00:22:06;18.90;73.10
32612;DHT22;19030;49.478;8.986;2022-07-29T00:24:07;18.90;73.50
32612;DHT22;19030;49.478;8.986;2022-07-29T00:26:08;18.90;73.80
32612;DHT22;19030;49.478;8.986;2022-07-29T00:28:08;18.80;74.00
32612;DHT22;19030;49.478;8.986;2022-07-29T00:30:09;18.70;73.90
32612;DHT22;19030;49.478;8.986;2022-07-29T00:32:10;18.70;74.20
32612;DHT22;19030;49.478;8.986;2022-07-29T00:34:10;18.70;74.60
32612;DHT22;19030;49.478;8.986;2022-07-29T00:36:29;18.70;75.00
32612;DHT22;19030;49.478;8.986;2022-07-29T00:38:30;18.60;74.90
32612;DHT22;19030;49.478;8.986;2022-07-29T00:40:31;18.60;75.00
32612;DHT22;19030;49.478;8.986;2022-07-29T00:42:47;18.50;75.20
32612;DHT22;19030;49.478;8.986;2022-07-29T00:44:48;18.50;75.60
32612;DHT22;19030;49.478;8.986;2022-07-29T00:46:49;18.50;75.80
32612;DHT22;19030;49.478;8.986;2022-07-29T00:48:50;18.40;76.20
32612;DHT22;19030;49.478;8.986;2022-07-29T00:50:50;18.40;76.30
32612;DHT22;19030;49.478;8.986;2022-07-29T00:52:52;18.40;76.00
32612;DHT22;19030;49.478;8.986;2022-07-29T00:54:53;18.30;75.90
32612;DHT22;19030;49.478;8.986;2022-07-29T00:56:53;18.30;75.90
32612;DHT22;19030;49.478;8.986;2022-07-29T00:58:55;18.30;76.20
32612;DHT22;19030;49.478;8.986;2022-07-29T01:00:57;18.20;76.50
32612;DHT22;19030;49.478;8.986;2022-07-29T01:02:58;18.20;77.10
32612;DHT22;19030;49.478;8.986;2022-07-29T01:04:59;18.10;77.30
32612;DHT22;19030;49.478;8.986;2022-07-29T01:07:02;18.10;77.80
32612;DHT22;19030;49.478;8.986;2022-07-29T01:09:03;18.00;78.10
32612;DHT22;19030;49.478;8.986;2022-07-29T01:11:04;18.00;78.70
32612;DHT22;19030;49.478;8.986;2022-07-29T01:13:05;17.90;79.00
32612;DHT22;19030;49.478;8.986;2022-07-29T01:15:07;17.90;79.20
32612;DHT22;19030;49.478;8.986;2022-07-29T01:17:14;17.90;79.80
32612;DHT22;19030;49.478;8.986;2022-07-29T01:21:56;17.90;80.10
32612;DHT22;19030;49.478;8.986;2022-07-29T01:24:28;17.80;80.20
32612;DHT22;19030;49.478;8.986;2022-07-29T01:26:54;17.80;80.20
32612;DHT22;19030;49.478;8.986;2022-07-29T01:29:12;17.80;80.50
32612;DHT22;19030;49.478;8.986;2022-07-29T01:31:22;17.80;80.60
32612;DHT22;19030;49.478;8.986;2022-07-29T01:33:25;17.80;80.80
32612;DHT22;19030;49.478;8.986;2022-07-29T01:35:46;17.70;80.70
32612;DHT22;19030;49.478;8.986;2022-07-29T01:37:51;17.70;80.80
32612;DHT22;19030;49.478;8.986;2022-07-29T01:39:54;17.70;80.80
32612;DHT22;19030;49.478;8.986;2022-07-29T01:44:12;17.60;81.80
32612;DHT22;19030;49.478;8.986;2022-07-29T01:46:20;17.60;81.20
32612;DHT22;19030;49.478;8.986;2022-07-29T01:48:47;17.60;81.40
32612;DHT22;19030;49.478;8.986;2022-07-29T01:51:21;17.50;82.30
32612;DHT22;19030;49.478;8.986;2022-07-29T01:53:37;17.60;82.50
32612;DHT22;19030;49.478;8.986;2022-07-29T01:55:41;17.50;82.50
32612;DHT22;19030;49.478;8.986;2022-07-29T01:57:46;17.50;82.90
32612;DHT22;19030;49.478;8.986;2022-07-29T01:59:48;17.50;83.20
32612;DHT22;19030;49.478;8.986;2022-07-29T02:01:52;17.50;83.50
32612;DHT22;19030;49.478;8.986;2022-07-29T02:03:54;17.40;83.90
32612;DHT22;19030;49.478;8.986;2022-07-29T02:05:56;17.40;85.40
32612;DHT22;19030;49.478;8.986;2022-07-29T02:07:58;17.40;85.00
32612;DHT22;19030;49.478;8.986;2022-07-29T02:10:02;17.30;85.20
32612;DHT22;19030;49.478;8.986;2022-07-29T02:12:06;17.30;85.20
32612;DHT22;19030;49.478;8.986;2022-07-29T02:14:07;17.30;85.60
32612;DHT22;19030;49.478;8.986;2022-07-29T02:16:10;17.20;85.70
32612;DHT22;19030;49.478;8.986;2022-07-29T02:18:17;17.20;85.80
32612;DHT22;19030;49.478;8.986;2022-07-29T02:20:18;17.20;86.30
32612;DHT22;19030;49.478;8.986;2022-07-29T02:22:19;17.20;86.70
32612;DHT22;19030;49.478;8.986;2022-07-29T02:24:22;17.20;86.90
32612;DHT22;19030;49.478;8.986;2022-07-29T02:26:25;17.20;87.00
32612;DHT22;19030;49.478;8.986;2022-07-29T02:28:28;17.10;87.30
32612;DHT22;19030;49.478;8.986;2022-07-29T02:30:30;17.10;87.60
32612;DHT22;19030;49.478;8.986;2022-07-29T02:32:32;17.10;87.80
32612;DHT22;19030;49.478;8.986;2022-07-29T02:34:35;17.10;88.10
32612;DHT22;19030;49.478;8.986;2022-07-29T02:36:38;17.00;88.40
32612;DHT22;19030;49.478;8.986;2022-07-29T02:38:41;17.00;88.60
32612;DHT22;19030;49.478;8.986;2022-07-29T02:40:52;17.00;89.10
32612;DHT22;19030;49.478;8.986;2022-07-29T02:42:54;16.90;89.50
32612;DHT22;19030;49.478;8.986;2022-07-29T02:44:55;16.90;89.90
32612;DHT22;19030;49.478;8.986;2022-07-29T02:47:21;16.90;90.00
32612;DHT22;19030;49.478;8.986;2022-07-29T02:49:31;16.90;90.10
32612;DHT22;19030;49.478;8.986;2022-07-29T02:51:51;16.90;90.20
32612;DHT22;19030;49.478;8.986;2022-07-29T02:53:54;16.90;90.30
32612;DHT22;19030;49.478;8.986;2022-07-29T02:55:59;16.80;90.50
32612;DHT22;19030;49.478;8.986;2022-07-29T03:00:33;16.70;90.80
32612;DHT22;19030;49.478;8.986;2022-07-29T03:02:38;16.70;90.80
32612;DHT22;19030;49.478;8.986;2022-07-29T03:04:41;16.70;90.80
32612;DHT22;19030;49.478;8.986;2022-07-29T03:06:43;16.70;91.00
32612;DHT22;19030;49.478;8.986;2022-07-29T03:08:46;16.70;91.20
32612;DHT22;19030;49.478;8.986;2022-07-29T03:10:48;16.70;91.50
32612;DHT22;19030;49.478;8.986;2022-07-29T03:12:49;16.60;91.70
32612;DHT22;19030;49.478;8.986;2022-07-29T03:14:50;16.60;91.90
32612;DHT22;19030;49.478;8.986;2022-07-29T03:16:51;16.50;92.10
32612;DHT22;19030;49.478;8.986;2022-07-29T03:18:53;16.50;92.40
32612;DHT22;19030;49.478;8.986;2022-07-29T03:20:54;16.40;92.60
32612;DHT22;19030;49.478;8.986;2022-07-29T03:22:54;16.40;92.70
32612;DHT22;19030;49.478;8.986;2022-07-29T03:24:55;16.40;93.00
32612;DHT22;19030;49.478;8.986;2022-07-29T03:26:56;16.40;93.20
32612;DHT22;19030;49.478;8.986;2022-07-29T03:28:57;16.30;93.40
32612;DHT22;19030;49.478;8.986;2022-07-29T03:30:57;16.40;93.70
32612;DHT22;19030;49.478;8.986;2022-07-29T03:32:58;16.40;94.00
32612;DHT22;19030;49.478;8.986;2022-07-29T03:34:58;16.40;94.10
32612;DHT22;19030;49.478;8.986;2022-07-29T03:36:59;16.40;94.00
32612;DHT22;19030;49.478;8.986;2022-07-29T03:39:00;16.40;93.80
32612;DHT22;19030;49.478;8.986;2022-07-29T03:41:07;16.40;94.00
32612;DHT22;19030;49.478;8.986;2022-07-29T03:43:10;16.40;93.70
32612;DHT22;19030;49.478;8.986;2022-07-29T03:45:15;16.50;93.80
32612;DHT22;19030;49.478;8.986;2022-07-29T03:47:19;16.50;93.80
32612;DHT22;19030;49.478;8.986;2022-07-29T03:49:21;16.50;94.00
32612;DHT22;19030;49.478;8.986;2022-07-29T03:51:24;16.50;94.20
32612;DHT22;19030;49.478;8.986;2022-07-29T03:53:26;16.50;94.00
32612;DHT22;19030;49.478;8.986;2022-07-29T03:55:29;16.50;93.90
32612;DHT22;19030;49.478;8.986;2022-07-29T03:57:32;16.50;93.80
32612;DHT22;19030;49.478;8.986;2022-07-29T03:59:33;16.50;93.90
32612;DHT22;19030;49.478;8.986;2022-07-29T04:01:35;16.50;94.10
32612;DHT22;19030;49.478;8.986;2022-07-29T04:03:36;16.60;93.90
32612;DHT22;19030;49.478;8.986;2022-07-29T04:05:36;16.50;93.50
32612;DHT22;19030;49.478;8.986;2022-07-29T04:07:37;16.50;93.50
32612;DHT22;19030;49.478;8.986;2022-07-29T04:09:38;16.60;93.70
32612;DHT22;19030;49.478;8.986;2022-07-29T04:11:39;16.60;93.50
32612;DHT22;19030;49.478;8.986;2022-07-29T04:13:40;16.70;93.50
32612;DHT22;19030;49.478;8.986;2022-07-29T04:15:41;16.70;93.40
32612;DHT22;19030;49.478;8.986;2022-07-29T04:17:41;16.70;93.30
32612;DHT22;19030;49.478;8.986;2022-07-29T04:19:42;16.70;93.50
32612;DHT22;19030;49.478;8.986;2022-07-29T04:21:42;16.70;93.80
32612;DHT22;19030;49.478;8.986;2022-07-29T04:23:45;16.70;94.00
32612;DHT22;19030;49.478;8.986;2022-07-29T04:25:49;16.80;94.30
32612;DHT22;19030;49.478;8.986;2022-07-29T04:27:50;16.80;94.30
32612;DHT22;19030;49.478;8.986;2022-07-29T04:30:03;16.80;93.90
32612;DHT22;19030;49.478;8.986;2022-07-29T04:32:04;16.90;93.50
32612;DHT22;19030;49.478;8.986;2022-07-29T04:34:05;16.90;93.30
32612;DHT22;19030;49.478;8.986;2022-07-29T04:36:05;16.90;93.10
32612;DHT22;19030;49.478;8.986;2022-07-29T04:38:06;16.90;93.00
32612;DHT22;19030;49.478;8.986;2022-07-29T04:40:07;16.90;93.30
32612;DHT22;19030;49.478;8.986;2022-07-29T04:42:08;16.90;93.40
32612;DHT22;19030;49.478;8.986;2022-07-29T04:44:08;16.90;93.40
32612;DHT22;19030;49.478;8.986;2022-07-29T04:46:09;17.00;93.30
32612;DHT22;19030;49.478;8.986;2022-07-29T04:48:09;17.00;93.20
32612;DHT22;19030;49.478;8.986;2022-07-29T04:50:10;17.00;93.40
32612;DHT22;19030;49.478;8.986;2022-07-29T04:52:10;17.00;93.70
32612;DHT22;19030;49.478;8.986;2022-07-29T04:54:11;17.00;93.70
32612;DHT22;19030;49.478;8.986;2022-07-29T04:56:11;17.00;93.40
32612;DHT22;19030;49.478;8.986;2022-07-29T04:58:12;17.00;93.20
32612;DHT22;19030;49.478;8.986;2022-07-29T05:00:13;17.10;93.10
32612;DHT22;19030;49.478;8.986;2022-07-29T05:02:13;17.10;92.80
32612;DHT22;19030;49.478;8.986;2022-07-29T05:04:14;17.10;92.80
32612;DHT22;19030;49.478;8.986;2022-07-29T05:06:14;17.00;92.90
32612;DHT22;19030;49.478;8.986;2022-07-29T05:08:15;17.00;93.50
32612;DHT22;19030;49.478;8.986;2022-07-29T05:10:15;17.00;93.10
32612;DHT22;19030;49.478;8.986;2022-07-29T05:12:16;17.00;93.10
32612;DHT22;19030;49.478;8.986;2022-07-29T05:14:17;17.00;93.30
32612;DHT22;19030;49.478;8.986;2022-07-29T05:16:17;17.00;93.40
32612;DHT22;19030;49.478;8.986;2022-07-29T05:18:18;17.10;93.50
32612;DHT22;19030;49.478;8.986;2022-07-29T05:20:18;17.10;93.30
32612;DHT22;19030;49.478;8.986;2022-07-29T05:22:19;17.20;93.10
32612;DHT22;19030;49.478;8.986;2022-07-29T05:24:20;17.20;93.20
32612;DHT22;19030;49.478;8.986;2022-07-29T05:26:21;17.30;93.40
32612;DHT22;19030;49.478;8.986;2022-07-29T05:28:21;17.30;93.50
32612;DHT22;19030;49.478;8.986;2022-07-29T05:30:22;17.40;93.50
32612;DHT22;19030;49.478;8.986;2022-07-29T05:32:22;17.50;93.20
32612;DHT22;19030;49.478;8.986;2022-07-29T05:34:23;17.60;92.80
32612;DHT22;19030;49.478;8.986;2022-07-29T05:36:25;17.70;92.60
32612;DHT22;19030;49.478;8.986;2022-07-29T05:38:26;17.90;92.40
32612;DHT22;19030;49.478;8.986;2022-07-29T05:40:26;18.00;92.00
32612;DHT22;19030;49.478;8.986;2022-07-29T05:42:27;18.10;91.60
32612;DHT22;19030;49.478;8.986;2022-07-29T05:44:28;18.20;90.80
32612;DHT22;19030;49.478;8.986;2022-07-29T05:46:28;18.20;90.50
32612;DHT22;19030;49.478;8.986;2022-07-29T05:48:29;18.30;90.60
32612;DHT22;19030;49.478;8.986;2022-07-29T05:50:29;18.40;90.30
32612;DHT22;19030;49.478;8.986;2022-07-29T05:52:30;18.40;90.00
32612;DHT22;19030;49.478;8.986;2022-07-29T05:54:30;18.50;89.30
32612;DHT22;19030;49.478;8.986;2022-07-29T05:56:31;18.50;88.90
32612;DHT22;19030;49.478;8.986;2022-07-29T05:58:31;18.50;89.10
32612;DHT22;19030;49.478;8.986;2022-07-29T06:00:32;18.60;89.10
32612;DHT22;19030;49.478;8.986;2022-07-29T06:02:32;18.70;88.90
32612;DHT22;19030;49.478;8.986;2022-07-29T06:04:33;18.80;88.30
32612;DHT22;19030;49.478;8.986;2022-07-29T06:06:34;19.00;87.70
32612;DHT22;19030;49.478;8.986;2022-07-29T06:08:35;19.10;87.20
32612;DHT22;19030;49.478;8.986;2022-07-29T06:10:37;19.20;86.20
32612;DHT22;19030;49.478;8.986;2022-07-29T06:12:37;19.40;85.60
32612;DHT22;19030;49.478;8.986;2022-07-29T06:14:38;19.50;85.00
32612;DHT22;19030;49.478;8.986;2022-07-29T06:16:38;19.60;84.80
32612;DHT22;19030;49.478;8.986;2022-07-29T06:18:39;19.80;84.30
32612;DHT22;19030;49.478;8.986;2022-07-29T06:20:40;20.00;83.30
32612;DHT22;19030;49.478;8.986;2022-07-29T06:22:40;20.30;81.70
32612;DHT22;19030;49.478;8.986;2022-07-29T06:24:41;20.60;80.80
32612;DHT22;19030;49.478;8.986;2022-07-29T06:26:44;20.80;79.90
32612;DHT22;19030;49.478;8.986;2022-07-29T06:28:44;20.90;79.10
32612;DHT22;19030;49.478;8.986;2022-07-29T06:30:45;21.00;79.20
32612;DHT22;19030;49.478;8.986;2022-07-29T06:32:45;21.20;79.40
32612;DHT22;19030;49.478;8.986;2022-07-29T06:34:46;21.40;78.40
32612;DHT22;19030;49.478;8.986;2022-07-29T06:36:47;21.50;77.60
32612;DHT22;19030;49.478;8.986;2022-07-29T06:38:49;21.90;76.80
32612;DHT22;19030;49.478;8.986;2022-07-29T06:40:50;22.40;75.30
32612;DHT22;19030;49.478;8.986;2022-07-29T06:43:07;22.80;73.40
32612;DHT22;19030;49.478;8.986;2022-07-29T06:45:09;23.10;69.60
32612;DHT22;19030;49.478;8.986;2022-07-29T06:47:10;23.30;68.90
32612;DHT22;19030;49.478;8.986;2022-07-29T06:49:10;23.60;67.80
32612;DHT22;19030;49.478;8.986;2022-07-29T06:51:12;23.90;66.30
32612;DHT22;19030;49.478;8.986;2022-07-29T06:53:13;24.20;65.10
32612;DHT22;19030;49.478;8.986;2022-07-29T06:55:13;24.70;63.20
32612;DHT22;19030;49.478;8.986;2022-07-29T06:57:14;25.20;60.00
32612;DHT22;19030;49.478;8.986;2022-07-29T06:59:15;25.20;59.60
32612;DHT22;19030;49.478;8.986;2022-07-29T07:01:16;25.10;59.60
32612;DHT22;19030;49.478;8.986;2022-07-29T07:03:17;25.10;60.20
32612;DHT22;19030;49.478;8.986;2022-07-29T07:05:18;25.30;60.30
32612;DHT22;19030;49.478;8.986;2022-07-29T07:07:18;25.80;59.30
32612;DHT22;19030;49.478;8.986;2022-07-29T07:09:19;26.00;57.70
32612;DHT22;19030;49.478;8.986;2022-07-29T07:11:20;25.90;57.50
32612;DHT22;19030;49.478;8.986;2022-07-29T07:13:20;25.50;58.00
32612;DHT22;19030;49.478;8.986;2022-07-29T07:15:21;25.20;59.80
32612;DHT22;19030;49.478;8.986;2022-07-29T07:17:22;25.10;62.60
32612;DHT22;19030;49.478;8.986;2022-07-29T07:19:22;25.00;65.90
32612;DHT22;19030;49.478;8.986;2022-07-29T07:21:23;24.90;67.30
32612;DHT22;19030;49.478;8.986;2022-07-29T07:23:24;24.90;67.40
32612;DHT22;19030;49.478;8.986;2022-07-29T07:25:25;25.20;64.50
32612;DHT22;19030;49.478;8.986;2022-07-29T07:27:25;25.60;62.40
32612;DHT22;19030;49.478;8.986;2022-07-29T07:29:27;25.70;59.50
32612;DHT22;19030;49.478;8.986;2022-07-29T07:31:28;25.60;59.70
32612;DHT22;19030;49.478;8.986;2022-07-29T07:33:28;25.40;62.70
32612;DHT22;19030;49.478;8.986;2022-07-29T07:35:29;25.30;66.10
32612;DHT22;19030;49.478;8.986;2022-07-29T07:37:30;25.20;67.70
32612;DHT22;19030;49.478;8.986;2022-07-29T07:39:30;25.20;68.40
32612;DHT22;19030;49.478;8.986;2022-07-29T07:41:31;25.20;68.90
32612;DHT22;19030;49.478;8.986;2022-07-29T07:43:31;25.20;69.70
32612;DHT22;19030;49.478;8.986;2022-07-29T07:45:32;25.20;68.40
32612;DHT22;19030;49.478;8.986;2022-07-29T07:47:33;25.50;67.30
32612;DHT22;19030;49.478;8.986;2022-07-29T07:49:33;26.00;65.50
32612;DHT22;19030;49.478;8.986;2022-07-29T07:51:34;26.60;62.80
32612;DHT22;19030;49.478;8.986;2022-07-29T07:53:34;27.10;60.70
32612;DHT22;19030;49.478;8.986;2022-07-29T07:55:40;27.30;59.20
32612;DHT22;19030;49.478;8.986;2022-07-29T07:57:41;27.30;59.30
32612;DHT22;19030;49.478;8.986;2022-07-29T07:59:41;27.00;60.50
32612;DHT22;19030;49.478;8.986;2022-07-29T08:01:42;26.50;59.60
32612;DHT22;19030;49.478;8.986;2022-07-29T08:03:43;26.30;61.00
32612;DHT22;19030;49.478;8.986;2022-07-29T08:05:43;26.50;62.20
32612;DHT22;19030;49.478;8.986;2022-07-29T08:07:46;27.00;61.10
32612;DHT22;19030;49.478;8.986;2022-07-29T08:09:46;27.90;60.90
32612;DHT22;19030;49.478;8.986;2022-07-29T08:11:47;28.60;57.30
32612;DHT22;19030;49.478;8.986;2022-07-29T08:13:48;29.50;56.50
32612;DHT22;19030;49.478;8.986;2022-07-29T08:15:48;30.40;55.50
32612;DHT22;19030;49.478;8.986;2022-07-29T08:17:57;31.10;53.60
32612;DHT22;19030;49.478;8.986;2022-07-29T08:19:58;31.90;52.90
32612;DHT22;19030;49.478;8.986;2022-07-29T08:21:58;32.40;50.60
32612;DHT22;19030;49.478;8.986;2022-07-29T08:23:59;32.50;49.90
32612;DHT22;19030;49.478;8.986;2022-07-29T08:26:20;31.80;50.30
32612;DHT22;19030;49.478;8.986;2022-07-29T08:28:22;30.70;52.30
32612;DHT22;19030;49.478;8.986;2022-07-29T08:30:23;30.00;54.00
32612;DHT22;19030;49.478;8.986;2022-07-29T08:32:24;29.60;54.20
32612;DHT22;19030;49.478;8.986;2022-07-29T08:34:24;29.40;54.80
32612;DHT22;19030;49.478;8.986;2022-07-29T08:36:25;30.00;54.60
32612;DHT22;19030;49.478;8.986;2022-07-29T08:38:26;30.90;52.70
32612;DHT22;19030;49.478;8.986;2022-07-29T08:40:27;32.00;51.20
32612;DHT22;19030;49.478;8.986;2022-07-29T08:42:28;33.00;49.50
32612;DHT22;19030;49.478;8.986;2022-07-29T08:44:29;34.10;47.90
32612;DHT22;19030;49.478;8.986;2022-07-29T08:46:30;35.00;45.60
32612;DHT22;19030;49.478;8.986;2022-07-29T08:48:31;35.80;43.40
32612;DHT22;19030;49.478;8.986;2022-07-29T08:50:35;36.20;42.30
32612;DHT22;19030;49.478;8.986;2022-07-29T08:52:39;36.50;41.40
32612;DHT22;19030;49.478;8.986;2022-07-29T08:54:43;35.80;41.30
32612;DHT22;19030;49.478;8.986;2022-07-29T08:56:47;35.00;42.70
32612;DHT22;19030;49.478;8.986;2022-07-29T08:58:49;34.40;43.40
32612;DHT22;19030;49.478;8.986;2022-07-29T09:00:55;34.10;44.20
32612;DHT22;19030;49.478;8.986;2022-07-29T09:02:57;33.30;45.20
32612;DHT22;19030;49.478;8.986;2022-07-29T09:05:00;32.30;46.70
32612;DHT22;19030;49.478;8.986;2022-07-29T09:07:03;31.50;48.70
32612;DHT22;19030;49.478;8.986;2022-07-29T09:09:04;30.90;50.00
32612;DHT22;19030;49.478;8.986;2022-07-29T09:11:05;30.40;50.80
32612;DHT22;19030;49.478;8.986;2022-07-29T09:13:07;29.90;52.20
32612;DHT22;19030;49.478;8.986;2022-07-29T09:15:08;29.90;52.90
32612;DHT22;19030;49.478;8.986;2022-07-29T09:17:09;30.80;51.50
32612;DHT22;19030;49.478;8.986;2022-07-29T09:19:29;32.40;49.50
32612;DHT22;19030;49.478;8.986;2022-07-29T09:21:40;34.00;45.90
32612;DHT22;19030;49.478;8.986;2022-07-29T09:24:09;35.30;43.40
32612;DHT22;19030;49.478;8.986;2022-07-29T09:26:10;35.50;42.30
32612;DHT22;19030;49.478;8.986;2022-07-29T09:28:13;36.20;41.30
32612;DHT22;19030;49.478;8.986;2022-07-29T09:30:14;37.10;39.50
32612;DHT22;19030;49.478;8.986;2022-07-29T09:32:15;36.90;39.20
32612;DHT22;19030;49.478;8.986;2022-07-29T09:34:21;37.00;39.00
32612;DHT22;19030;49.478;8.986;2022-07-29T09:36:22;37.80;38.20
32612;DHT22;19030;49.478;8.986;2022-07-29T09:38:22;38.30;37.10
32612;DHT22;19030;49.478;8.986;2022-07-29T09:40:26;38.70;36.50
32612;DHT22;19030;49.478;8.986;2022-07-29T09:42:28;38.80;35.80
32612;DHT22;19030;49.478;8.986;2022-07-29T09:44:49;38.30;36.40
32612;DHT22;19030;49.478;8.986;2022-07-29T09:49:12;37.20;37.40
32612;DHT22;19030;49.478;8.986;2022-07-29T09:51:20;37.20;37.50
32612;DHT22;19030;49.478;8.986;2022-07-29T09:55:31;35.60;39.60
32612;DHT22;19030;49.478;8.986;2022-07-29T09:57:32;34.40;41.30
32612;DHT22;19030;49.478;8.986;2022-07-29T09:59:33;33.80;42.40
32612;DHT22;19030;49.478;8.986;2022-07-29T10:01:34;34.20;42.10
32612;DHT22;19030;49.478;8.986;2022-07-29T10:03:52;34.00;42.10
32612;DHT22;19030;49.478;8.986;2022-07-29T10:06:06;33.60;43.20
32612;DHT22;19030;49.478;8.986;2022-07-29T10:08:08;34.10;42.60
32612;DHT22;19030;49.478;8.986;2022-07-29T10:10:09;34.10;42.70
32612;DHT22;19030;49.478;8.986;2022-07-29T10:12:12;34.00;42.70
32612;DHT22;19030;49.478;8.986;2022-07-29T10:14:16;33.60;43.20
32612;DHT22;19030;49.478;8.986;2022-07-29T10:16:17;33.40;43.50
32612;DHT22;19030;49.478;8.986;2022-07-29T10:18:18;34.10;43.40
32612;DHT22;19030;49.478;8.986;2022-07-29T10:20:21;35.30;41.20
32612;DHT22;19030;49.478;8.986;2022-07-29T10:22:22;36.40;39.60
32612;DHT22;19030;49.478;8.986;2022-07-29T10:24:24;37.60;38.40
32612;DHT22;19030;49.478;8.986;2022-07-29T10:26:26;38.80;36.20
32612;DHT22;19030;49.478;8.986;2022-07-29T10:28:26;38.70;36.00
32612;DHT22;19030;49.478;8.986;2022-07-29T10:30:27;38.10;36.60
32612;DHT22;19030;49.478;8.986;2022-07-29T10:32:43;38.00;37.10
32612;DHT22;19030;49.478;8.986;2022-07-29T10:37:52;38.30;37.20
32612;DHT22;19030;49.478;8.986;2022-07-29T10:40:23;37.80;36.30
32612;DHT22;19030;49.478;8.986;2022-07-29T10:42:44;37.00;37.90
32612;DHT22;19030;49.478;8.986;2022-07-29T10:44:45;36.70;38.40
32612;DHT22;19030;49.478;8.986;2022-07-29T10:46:47;36.40;38.60
32612;DHT22;19030;49.478;8.986;2022-07-29T10:51:12;35.10;40.30
32612;DHT22;19030;49.478;8.986;2022-07-29T10:53:13;34.80;41.30
32612;DHT22;19030;49.478;8.986;2022-07-29T10:55:39;34.90;41.80
32612;DHT22;19030;49.478;8.986;2022-07-29T11:09:18;34.30;41.40
32612;DHT22;19030;49.478;8.986;2022-07-29T11:22:35;33.20;43.10
32612;DHT22;19030;49.478;8.986;2022-07-29T11:24:37;33.20;43.40
32612;DHT22;19030;49.478;8.986;2022-07-29T11:26:38;33.70;43.10
32612;DHT22;19030;49.478;8.986;2022-07-29T11:28:56;34.00;41.90
32612;DHT22;19030;49.478;8.986;2022-07-29T11:30:58;33.90;42.40
32612;DHT22;19030;49.478;8.986;2022-07-29T11:32:59;33.70;42.70
32612;DHT22;19030;49.478;8.986;2022-07-29T11:35:19;33.80;42.40
32612;DHT22;19030;49.478;8.986;2022-07-29T11:37:24;33.70;42.80
32612;DHT22;19030;49.478;8.986;2022-07-29T11:39:26;33.50;42.70
32612;DHT22;19030;49.478;8.986;2022-07-29T11:41:27;33.20;42.90
32612;DHT22;19030;49.478;8.986;2022-07-29T11:43:48;33.20;43.40
32612;DHT22;19030;49.478;8.986;2022-07-29T11:45:49;33.30;42.90
32612;DHT22;19030;49.478;8.986;2022-07-29T11:47:52;33.50;42.30
32612;DHT22;19030;49.478;8.986;2022-07-29T11:49:55;34.10;41.90
32612;DHT22;19030;49.478;8.986;2022-07-29T11:51:57;34.20;41.40
32612;DHT22;19030;49.478;8.986;2022-07-29T11:53:58;33.80;41.40
32612;DHT22;19030;49.478;8.986;2022-07-29T11:56:00;33.90;42.10
32612;DHT22;19030;49.478;8.986;2022-07-29T11:58:01;33.90;41.70
32612;DHT22;19030;49.478;8.986;2022-07-29T12:00:06;34.00;41.80
32612;DHT22;19030;49.478;8.986;2022-07-29T12:02:08;34.20;41.10
32612;DHT22;19030;49.478;8.986;2022-07-29T12:04:10;34.10;40.80
32612;DHT22;19030;49.478;8.986;2022-07-29T12:06:14;33.90;41.10
32612;DHT22;19030;49.478;8.986;2022-07-29T12:08:20;33.70;40.80
32612;DHT22;19030;49.478;8.986;2022-07-29T12:10:22;33.70;41.20
32612;DHT22;19030;49.478;8.986;2022-07-29T12:12:23;33.70;41.50
32612;DHT22;19030;49.478;8.986;2022-07-29T12:14:28;34.00;41.00
32612;DHT22;19030;49.478;8.986;2022-07-29T12:16:35;34.00;41.60
32612;DHT22;19030;49.478;8.986;2022-07-29T12:18:37;33.80;42.30
32612;DHT22;19030;49.478;8.986;2022-07-29T12:20:37;34.10;41.60
32612;DHT22;19030;49.478;8.986;2022-07-29T12:22:40;34.30;41.40
32612;DHT22;19030;49.478;8.986;2022-07-29T12:24:44;34.30;40.80
32612;DHT22;19030;49.478;8.986;2022-07-29T12:26:55;34.40;41.40
32612;DHT22;19030;49.478;8.986;2022-07-29T12:28:56;34.50;40.70
32612;DHT22;19030;49.478;8.986;2022-07-29T12:30:56;34.60;40.40
32612;DHT22;19030;49.478;8.986;2022-07-29T12:32:57;35.00;40.40
32612;DHT22;19030;49.478;8.986;2022-07-29T12:34:58;35.20;40.00
32612;DHT22;19030;49.478;8.986;2022-07-29T12:36:59;35.00;39.40
32612;DHT22;19030;49.478;8.986;2022-07-29T12:39:02;34.80;39.50
32612;DHT22;19030;49.478;8.986;2022-07-29T12:41:02;34.40;39.80
32612;DHT22;19030;49.478;8.986;2022-07-29T12:43:15;34.40;40.40
32612;DHT22;19030;49.478;8.986;2022-07-29T12:45:16;34.70;40.40
32612;DHT22;19030;49.478;8.986;2022-07-29T12:47:18;35.30;40.00
32612;DHT22;19030;49.478;8.986;2022-07-29T12:49:22;35.30;40.10
32612;DHT22;19030;49.478;8.986;2022-07-29T12:51:35;35.60;40.10
32612;DHT22;19030;49.478;8.986;2022-07-29T12:53:37;35.60;39.50
32612;DHT22;19030;49.478;8.986;2022-07-29T12:55:43;35.20;39.90
32612;DHT22;19030;49.478;8.986;2022-07-29T12:57:46;34.50;40.90
32612;DHT22;19030;49.478;8.986;2022-07-29T13:00:02;33.80;41.60
32612;DHT22;19030;49.478;8.986;2022-07-29T13:02:03;33.10;43.20
32612;DHT22;19030;49.478;8.986;2022-07-29T13:04:04;32.60;44.00
32612;DHT22;19030;49.478;8.986;2022-07-29T13:06:04;32.20;45.60
32612;DHT22;19030;49.478;8.986;2022-07-29T13:08:17;32.10;44.70
32612;DHT22;19030;49.478;8.986;2022-07-29T13:10:20;31.90;45.40
32612;DHT22;19030;49.478;8.986;2022-07-29T13:12:21;32.00;45.90
32612;DHT22;19030;49.478;8.986;2022-07-29T13:14:33;32.20;46.40
32612;DHT22;19030;49.478;8.986;2022-07-29T13:16:35;32.80;44.20
32612;DHT22;19030;49.478;8.986;2022-07-29T13:18:36;32.90;44.30
32612;DHT22;19030;49.478;8.986;2022-07-29T13:20:36;32.50;42.80
32612;DHT22;19030;49.478;8.986;2022-07-29T13:22:37;32.30;43.50
32612;DHT22;19030;49.478;8.986;2022-07-29T13:26:50;32.60;43.80
32612;DHT22;19030;49.478;8.986;2022-07-29T13:28:52;32.80;43.10
32612;DHT22;19030;49.478;8.986;2022-07-29T13:30:52;33.00;44.20
32612;DHT22;19030;49.478;8.986;2022-07-29T13:32:53;33.20;42.20
32612;DHT22;19030;49.478;8.986;2022-07-29T13:34:59;33.50;42.40
32612;DHT22;19030;49.478;8.986;2022-07-29T13:37:00;33.80;41.50
32612;DHT22;19030;49.478;8.986;2022-07-29T13:39:01;33.80;39.50
32612;DHT22;19030;49.478;8.986;2022-07-29T13:41:02;33.40;39.70